Time;durP1;ratioP1;P1;durP2;ratioP2;P2;SDS_P1;SDS_P2;PMS_P1;PMS_P2;Temp;Humidity;BMP_temperature;BMP_pressure;BME280_temperature;BME280_humidity;BME280_pressure;Samples;Min_cycle;Max_cycle;Signal;HPM_P1;HPM_P2
2022/05/03 00:02:42;;;;;;;3.00;2.77;;;;;;;;;;5029044;28;20217;-56
2022/05/03 00:05:40;;;;;;;2.77;2.67;;;;;;;;;;5030765;28;20299;-56
2022/05/03 00:08:32;;;;;;;2.60;2.50;;;;;;;;;;5031687;28;20317;-56
2022/05/03 00:11:29;;;;;;;2.63;2.53;;;;;;;;;;5032181;28;20296;-56
2022/05/03 00:14:24;;;;;;;2.43;2.33;;;;;;;;;;5029352;28;20288;-56
2022/05/03 00:17:15;;;;;;;2.60;2.50;;;;;;;;;;5030437;28;20213;-56
2022/05/03 00:20:02;;;;;;;2.67;2.57;;;;;;;;;;5030063;28;20212;-56
2022/05/03 00:22:49;;;;;;;2.70;2.60;;;;;;;;;;5032552;28;20201;-56
2022/05/03 00:25:36;;;;;;;2.63;2.50;;;;;;;;;;5032072;28;20677;-56
2022/05/03 00:28:23;;;;;;;2.83;2.63;;;;;;;;;;5031306;28;20206;-56
2022/05/03 00:31:11;;;;;;;2.90;2.70;;;;;;;;;;5030912;28;20438;-56
2022/05/03 00:33:59;;;;;;;2.50;2.40;;;;;;;;;;5034918;28;20206;-55
2022/05/03 00:36:46;;;;;;;2.70;2.60;;;;;;;;;;5026901;28;20228;-55
2022/05/03 00:39:33;;;;;;;2.80;2.60;;;;;;;;;;5026920;28;20216;-57
2022/05/03 00:42:22;;;;;;;2.47;2.37;;;;;;;;;;5032077;28;20308;-55
2022/05/03 00:45:15;;;;;;;2.83;2.63;;;;;;;;;;5029482;28;20296;-56
2022/05/03 00:48:14;;;;;;;2.57;2.47;;;;;;;;;;5031766;28;20712;-56
2022/05/03 00:51:10;;;;;;;2.53;2.43;;;;;;;;;;5024144;28;20691;-55
2022/05/03 00:54:06;;;;;;;2.60;2.50;;;;;;;;;;5027161;28;20244;-55
2022/05/03 00:57:08;;;;;;;3.00;2.80;;;;;;;;;;5030117;28;20248;-55
2022/05/03 01:00:06;;;;;;;2.80;2.70;;;;;;;;;;5030050;28;20251;-56
2022/05/03 01:03:10;;;;;;;2.40;2.30;;;;;;;;;;5026996;28;20209;-61
2022/05/03 01:06:14;;;;;;;2.80;2.60;;;;;;;;;;5027235;28;20210;-61
2022/05/03 01:09:05;;;;;;;2.63;2.53;;;;;;;;;;5032852;28;20704;-61
2022/05/03 01:12:05;;;;;;;2.80;2.70;;;;;;;;;;5028264;28;20244;-61
2022/05/03 01:15:08;;;;;;;2.50;2.40;;;;;;;;;;5031096;28;20219;-61
2022/05/03 01:18:07;;;;;;;2.80;2.60;;;;;;;;;;5031103;28;20256;-61
2022/05/03 01:21:06;;;;;;;2.63;2.53;;;;;;;;;;5029562;28;20720;-61
2022/05/03 01:24:22;;;;;;;2.87;2.77;;;;;;;;;;5028471;28;20697;-60
2022/05/03 01:27:54;;;;;;;2.60;2.50;;;;;;;;;;5033509;28;20291;-61
2022/05/03 01:30:47;;;;;;;2.43;2.33;;;;;;;;;;4971248;28;20644;-61
2022/05/03 01:33:38;;;;;;;2.73;2.63;;;;;;;;;;5034626;28;20363;-61
2022/05/03 01:36:34;;;;;;;2.70;2.60;;;;;;;;;;5035423;28;20212;-61
2022/05/03 01:39:32;;;;;;;2.47;2.37;;;;;;;;;;5037213;28;20265;-61
2022/05/03 01:42:29;;;;;;;2.73;2.63;;;;;;;;;;5031600;28;20366;-60
2022/05/03 01:45:23;;;;;;;2.73;2.60;;;;;;;;;;5032785;28;20372;-60
2022/05/03 01:48:18;;;;;;;2.70;2.60;;;;;;;;;;5032824;28;20319;-61
2022/05/03 01:51:19;;;;;;;2.63;2.53;;;;;;;;;;5031693;28;20231;-61
2022/05/03 01:54:28;;;;;;;2.50;2.40;;;;;;;;;;5034893;28;20302;-61
2022/05/03 01:57:23;;;;;;;2.40;2.30;;;;;;;;;;5036708;28;20294;-61
2022/05/03 02:00:12;;;;;;;2.50;2.40;;;;;;;;;;5033037;28;20703;-60
2022/05/03 02:03:04;;;;;;;2.70;2.50;;;;;;;;;;5033279;28;20233;-61
2022/05/03 02:06:01;;;;;;;2.70;2.60;;;;;;;;;;5031742;28;20292;-61
2022/05/03 02:08:56;;;;;;;2.60;2.40;;;;;;;;;;5034140;28;20212;-61
2022/05/03 02:11:57;;;;;;;2.40;2.30;;;;;;;;;;5033462;28;20681;-61
2022/05/03 02:14:51;;;;;;;2.40;2.30;;;;;;;;;;5030906;28;20213;-61
2022/05/03 02:17:51;;;;;;;2.57;2.47;;;;;;;;;;5033907;28;20263;-61
2022/05/03 02:21:01;;;;;;;2.70;2.60;;;;;;;;;;5035355;28;20382;-61
2022/05/03 02:24:01;;;;;;;2.53;2.43;;;;;;;;;;5030513;28;20773;-61
2022/05/03 02:26:54;;;;;;;3.00;2.80;;;;;;;;;;5032219;28;20224;-61
2022/05/03 02:29:45;;;;;;;2.33;2.23;;;;;;;;;;5031379;28;20267;-61
2022/05/03 02:32:42;;;;;;;2.40;2.30;;;;;;;;;;5032745;28;20688;-61
2022/05/03 02:35:34;;;;;;;2.87;2.67;;;;;;;;;;5032057;28;20317;-61
2022/05/03 02:38:25;;;;;;;2.73;2.53;;;;;;;;;;5038896;28;20897;-61
2022/05/03 02:41:14;;;;;;;2.47;2.37;;;;;;;;;;5030655;28;20428;-61
2022/05/03 02:44:03;;;;;;;2.50;2.40;;;;;;;;;;5031941;28;20208;-61
2022/05/03 02:46:57;;;;;;;2.80;2.70;;;;;;;;;;5030842;28;20320;-61
2022/05/03 02:50:06;;;;;;;2.70;2.60;;;;;;;;;;5011513;28;20319;-61
2022/05/03 02:52:59;;;;;;;2.70;2.60;;;;;;;;;;5010718;28;20344;-61
2022/05/03 02:55:51;;;;;;;2.90;2.80;;;;;;;;;;5013468;28;20213;-60
2022/05/03 02:58:48;;;;;;;2.40;2.30;;;;;;;;;;5015204;28;20214;-61
2022/05/03 03:01:49;;;;;;;2.67;2.57;;;;;;;;;;5011725;28;20320;-61
2022/05/03 03:04:40;;;;;;;2.90;2.70;;;;;;;;;;5011274;28;20256;-61
2022/05/03 03:07:32;;;;;;;2.70;2.60;;;;;;;;;;5014339;28;20684;-61
2022/05/03 03:10:22;;;;;;;2.90;2.70;;;;;;;;;;5011293;28;21278;-61
2022/05/03 03:13:15;;;;;;;2.80;2.60;;;;;;;;;;5011085;28;20214;-60
2022/05/03 03:16:05;;;;;;;3.20;3.00;;;;;;;;;;5015956;28;20252;-61
2022/05/03 03:18:53;;;;;;;2.40;2.30;;;;;;;;;;5018580;28;20212;-61
2022/05/03 03:21:40;;;;;;;2.40;2.30;;;;;;;;;;5010833;28;20364;-61
2022/05/03 03:24:29;;;;;;;2.60;2.50;;;;;;;;;;5013489;28;20620;-61
2022/05/03 03:27:20;;;;;;;2.60;2.50;;;;;;;;;;5011770;28;20218;-61
2022/05/03 03:30:09;;;;;;;2.50;2.30;;;;;;;;;;5012686;28;20266;-61
2022/05/03 03:32:59;;;;;;;2.60;2.50;;;;;;;;;;5014533;28;20201;-61
2022/05/03 03:35:47;;;;;;;2.73;2.60;;;;;;;;;;5013502;28;20211;-61
2022/05/03 03:38:40;;;;;;;2.40;2.20;;;;;;;;;;5018402;28;20264;-61
2022/05/03 03:41:27;;;;;;;2.57;2.37;;;;;;;;;;5012483;28;20283;-61
2022/05/03 03:44:14;;;;;;;2.13;2.03;;;;;;;;;;5013191;28;20284;-60
2022/05/03 03:47:03;;;;;;;2.30;2.20;;;;;;;;;;5015429;28;20349;-61
2022/05/03 03:49:53;;;;;;;2.40;2.30;;;;;;;;;;5035005;28;20304;-60
2022/05/03 03:52:42;;;;;;;2.63;2.53;;;;;;;;;;5033929;28;20225;-59
2022/05/03 03:55:29;;;;;;;2.13;2.03;;;;;;;;;;5030050;28;20218;-61
2022/05/03 03:58:18;;;;;;;2.30;2.20;;;;;;;;;;5031110;28;20214;-60
2022/05/03 04:01:05;;;;;;;2.23;2.13;;;;;;;;;;5029675;28;20672;-61
2022/05/03 04:03:53;;;;;;;2.40;2.30;;;;;;;;;;5032054;28;20249;-60
2022/05/03 04:06:41;;;;;;;2.57;2.37;;;;;;;;;;5028659;28;20292;-61
2022/05/03 04:09:29;;;;;;;2.13;2.03;;;;;;;;;;5030100;28;20234;-60
2022/05/03 04:12:20;;;;;;;2.37;2.27;;;;;;;;;;5029615;28;20305;-61
2022/05/03 04:15:08;;;;;;;2.30;2.20;;;;;;;;;;5030325;28;20591;-61
2022/05/03 04:17:56;;;;;;;2.13;2.03;;;;;;;;;;5036987;28;20244;-61
2022/05/03 04:20:43;;;;;;;2.07;1.97;;;;;;;;;;5028328;28;20734;-61
2022/05/03 04:23:31;;;;;;;2.00;1.90;;;;;;;;;;5028895;28;20360;-60
2022/05/03 04:26:18;;;;;;;2.00;1.90;;;;;;;;;;5033387;28;20303;-61
2022/05/03 04:29:05;;;;;;;2.33;2.23;;;;;;;;;;5033210;28;20289;-61
2022/05/03 04:31:52;;;;;;;1.90;1.80;;;;;;;;;;5033792;28;20242;-61
2022/05/03 04:34:39;;;;;;;1.97;1.87;;;;;;;;;;5031296;28;20251;-61
2022/05/03 04:37:27;;;;;;;2.07;1.97;;;;;;;;;;5029275;28;20217;-61
2022/05/03 04:40:15;;;;;;;1.63;1.63;;;;;;;;;;5029341;28;20691;-61
2022/05/03 04:43:02;;;;;;;1.80;1.70;;;;;;;;;;5032583;28;20235;-61
2022/05/03 04:45:49;;;;;;;1.90;1.80;;;;;;;;;;5029854;28;20289;-61
2022/05/03 04:48:36;;;;;;;1.50;1.50;;;;;;;;;;5031541;28;20230;-61
2022/05/03 04:51:25;;;;;;;1.80;1.70;;;;;;;;;;5029609;28;20214;-61
2022/05/03 04:54:12;;;;;;;1.40;1.40;;;;;;;;;;5030079;28;20741;-61
2022/05/03 04:57:04;;;;;;;1.40;1.40;;;;;;;;;;5029665;28;20667;-61
2022/05/03 04:59:50;;;;;;;1.73;1.63;;;;;;;;;;5029512;28;20305;-59
2022/05/03 05:02:38;;;;;;;1.47;1.37;;;;;;;;;;5031069;28;20268;-61
2022/05/03 05:05:25;;;;;;;1.40;1.40;;;;;;;;;;5028062;28;20210;-61
2022/05/03 05:08:12;;;;;;;1.50;1.40;;;;;;;;;;5028365;28;20233;-61
2022/05/03 05:10:59;;;;;;;1.60;1.50;;;;;;;;;;5032350;28;20344;-61
2022/05/03 05:13:47;;;;;;;1.43;1.40;;;;;;;;;;5029105;28;20272;-61
2022/05/03 05:16:34;;;;;;;1.10;1.10;;;;;;;;;;5029530;28;20207;-61
2022/05/03 05:19:21;;;;;;;0.90;0.90;;;;;;;;;;5031834;28;20283;-61
2022/05/03 05:22:08;;;;;;;1.00;1.00;;;;;;;;;;5028141;28;20270;-61
2022/05/03 05:24:55;;;;;;;1.03;1.03;;;;;;;;;;5028921;28;20262;-61
2022/05/03 05:27:42;;;;;;;0.97;0.97;;;;;;;;;;5029401;28;20279;-61
2022/05/03 05:30:30;;;;;;;1.00;1.00;;;;;;;;;;5033165;28;20417;-60
2022/05/03 05:33:17;;;;;;;1.27;1.17;;;;;;;;;;5028430;28;20300;-61
2022/05/03 05:36:05;;;;;;;0.90;0.90;;;;;;;;;;5028143;28;20688;-61
2022/05/03 05:38:51;;;;;;;0.90;0.90;;;;;;;;;;5030435;28;20702;-61
2022/05/03 05:41:38;;;;;;;1.00;1.00;;;;;;;;;;5034380;28;20419;-61
2022/05/03 05:44:25;;;;;;;0.60;0.60;;;;;;;;;;5032042;28;20290;-62
2022/05/03 05:47:14;;;;;;;0.60;0.60;;;;;;;;;;5027599;28;20282;-61
2022/05/03 05:50:01;;;;;;;0.50;0.40;;;;;;;;;;5010252;28;20782;-61
2022/05/03 05:55:52;;;;;;;0.93;0.93;;;;;;;;;;5010657;28;20206;-61
2022/05/03 05:58:39;;;;;;;0.97;0.90;;;;;;;;;;5007381;28;20247;-61
2022/05/03 06:01:27;;;;;;;0.75;0.65;;;;;;;;;;5009118;28;20304;-61
2022/05/03 06:04:16;;;;;;;0.50;0.50;;;;;;;;;;5008206;28;20219;-62
2022/05/03 06:07:03;;;;;;;0.65;0.65;;;;;;;;;;5010481;28;20246;-58
2022/05/03 06:09:51;;;;;;;1.42;0.65;;;;;;;;;;5013178;28;20753;-62
2022/05/03 06:12:38;;;;;;;0.63;0.63;;;;;;;;;;5010433;28;20210;-62
2022/05/03 06:15:25;;;;;;;0.40;0.40;;;;;;;;;;5014068;28;20212;-60
2022/05/03 06:18:13;;;;;;;0.75;0.75;;;;;;;;;;5010344;28;20671;-60
2022/05/03 06:21:05;;;;;;;0.40;0.40;;;;;;;;;;5013543;28;20300;-61
2022/05/03 06:23:52;;;;;;;0.52;0.52;;;;;;;;;;5012248;28;20298;-62
2022/05/03 06:26:39;;;;;;;0.52;0.52;;;;;;;;;;5009966;28;20287;-62
2022/05/03 06:29:26;;;;;;;0.50;0.50;;;;;;;;;;5010663;28;20197;-60
2022/05/03 06:32:13;;;;;;;0.65;0.65;;;;;;;;;;5010536;28;20225;-61
2022/05/03 06:35:00;;;;;;;0.30;0.30;;;;;;;;;;5012840;28;20215;-61
2022/05/03 06:37:49;;;;;;;0.47;0.47;;;;;;;;;;5008855;28;20225;-61
2022/05/03 06:40:36;;;;;;;0.35;0.35;;;;;;;;;;5010276;28;20357;-61
2022/05/03 06:43:22;;;;;;;0.30;0.30;;;;;;;;;;5011528;28;20342;-60
2022/05/03 06:46:10;;;;;;;0.30;0.30;;;;;;;;;;5010222;28;20286;-60
2022/05/03 06:48:56;;;;;;;0.50;0.50;;;;;;;;;;5024479;28;20236;-60
2022/05/03 06:51:43;;;;;;;0.40;0.40;;;;;;;;;;5030910;28;20275;-60
2022/05/03 06:54:32;;;;;;;0.60;0.60;;;;;;;;;;5030150;28;20704;-58
2022/05/03 06:57:19;;;;;;;0.40;0.40;;;;;;;;;;5030465;28;20299;-56
2022/05/03 07:00:07;;;;;;;0.50;0.50;;;;;;;;;;5029016;28;20675;-59
2022/05/03 07:02:54;;;;;;;0.30;0.30;;;;;;;;;;5035258;28;20323;-60
2022/05/03 07:05:41;;;;;;;0.30;0.28;;;;;;;;;;5031255;28;20347;-59
2022/05/03 07:08:28;;;;;;;1.10;0.57;;;;;;;;;;5031331;28;20212;-60
2022/05/03 07:11:16;;;;;;;0.47;0.47;;;;;;;;;;5032277;28;20236;-59
2022/05/03 07:14:03;;;;;;;0.80;0.55;;;;;;;;;;5030986;28;20288;-59
2022/05/03 07:16:50;;;;;;;0.43;0.30;;;;;;;;;;5032443;28;20227;-59
2022/05/03 07:22:47;;;;;;;0.52;0.40;;;;;;;;;;5035348;28;20743;-59
2022/05/03 07:25:35;;;;;;;0.30;0.30;;;;;;;;;;5030829;28;20299;-60
2022/05/03 07:28:23;;;;;;;0.32;0.32;;;;;;;;;;5032589;28;20661;-60
2022/05/03 07:31:11;;;;;;;0.30;0.30;;;;;;;;;;5030971;28;20321;-59
2022/05/03 07:33:58;;;;;;;0.20;0.20;;;;;;;;;;5029375;28;20209;-62
2022/05/03 07:36:45;;;;;;;0.95;0.30;;;;;;;;;;5029848;28;20227;-62
2022/05/03 07:39:32;;;;;;;0.30;0.30;;;;;;;;;;5030296;28;20334;-62
2022/05/03 07:42:19;;;;;;;0.20;0.20;;;;;;;;;;5030766;28;20212;-61
2022/05/03 07:45:08;;;;;;;0.60;0.30;;;;;;;;;;5030656;28;20204;-62
2022/05/03 07:47:55;;;;;;;0.20;0.20;;;;;;;;;;5035016;28;20268;-62
2022/05/03 07:50:44;;;;;;;0.30;0.25;;;;;;;;;;5033187;28;20209;-61
2022/05/03 07:53:31;;;;;;;0.20;0.20;;;;;;;;;;5032951;28;20695;-61
2022/05/03 07:56:18;;;;;;;0.30;0.30;;;;;;;;;;5029952;28;20631;-62
2022/05/03 07:59:08;;;;;;;0.30;0.30;;;;;;;;;;5029382;28;20299;-62
2022/05/03 08:01:56;;;;;;;1.55;0.40;;;;;;;;;;5030030;28;20212;-62
2022/05/03 08:04:43;;;;;;;0.30;0.20;;;;;;;;;;5030374;28;20204;-61
2022/05/03 08:07:30;;;;;;;0.20;0.20;;;;;;;;;;5032454;28;20701;-62
2022/05/03 08:10:17;;;;;;;0.35;0.35;;;;;;;;;;5030460;28;20216;-62
2022/05/03 08:13:05;;;;;;;0.90;0.40;;;;;;;;;;5032847;28;20211;-60
2022/05/03 08:15:51;;;;;;;0.55;0.52;;;;;;;;;;5030645;28;20692;-60
2022/05/03 08:18:40;;;;;;;0.55;0.30;;;;;;;;;;5029737;28;20258;-60
2022/05/03 08:21:27;;;;;;;0.30;0.30;;;;;;;;;;5033058;28;20246;-60
2022/05/03 08:24:14;;;;;;;0.30;0.30;;;;;;;;;;5031124;28;20228;-60
2022/05/03 08:27:01;;;;;;;0.40;0.40;;;;;;;;;;5028768;28;20263;-60
2022/05/03 08:29:48;;;;;;;0.40;0.40;;;;;;;;;;5029558;28;20746;-60
2022/05/03 08:32:36;;;;;;;0.60;0.60;;;;;;;;;;5030524;28;20600;-60
2022/05/03 08:35:24;;;;;;;0.68;0.52;;;;;;;;;;5029243;28;20831;-60
2022/05/03 08:44:20;;;;;;;0.60;0.60;;;;;;;;;;5033093;28;20228;-59
2022/05/03 08:47:07;;;;;;;0.50;0.50;;;;;;;;;;5027753;28;20288;-58
2022/05/03 08:50:02;;;;;;;1.23;0.60;;;;;;;;;;5029028;28;20681;-59
2022/05/03 08:52:54;;;;;;;0.55;0.55;;;;;;;;;;5029703;28;20712;-59
2022/05/03 08:55:42;;;;;;;0.70;0.70;;;;;;;;;;5028708;28;20205;-59
2022/05/03 08:58:30;;;;;;;0.70;0.70;;;;;;;;;;5030959;28;20205;-59
2022/05/03 09:01:17;;;;;;;1.02;0.60;;;;;;;;;;5029871;28;20248;-59
2022/05/03 09:04:04;;;;;;;0.50;0.50;;;;;;;;;;5028726;28;20311;-60
2022/05/03 09:06:51;;;;;;;0.32;0.30;;;;;;;;;;5027884;28;20216;-60
2022/05/03 09:09:39;;;;;;;0.55;0.55;;;;;;;;;;5030897;28;20575;-59
2022/05/03 09:12:28;;;;;;;0.50;0.50;;;;;;;;;;5029151;28;20209;-62
2022/05/03 09:15:15;;;;;;;0.40;0.40;;;;;;;;;;5032027;28;20204;-60
2022/05/03 09:18:02;;;;;;;0.50;0.50;;;;;;;;;;5030992;28;20334;-59
2022/05/03 09:24:01;;;;;;;0.50;0.50;;;;;;;;;;5029880;28;20242;-61
2022/05/03 09:26:49;;;;;;;0.40;0.40;;;;;;;;;;5028903;28;20223;-62
2022/05/03 09:29:36;;;;;;;0.50;0.50;;;;;;;;;;5031837;28;20769;-61
2022/05/03 09:32:34;;;;;;;0.50;0.50;;;;;;;;;;5029592;28;20639;-62
2022/05/03 09:35:32;;;;;;;0.40;0.38;;;;;;;;;;5029194;28;20208;-61
2022/05/03 09:38:19;;;;;;;0.50;0.50;;;;;;;;;;5028766;28;20296;-59
2022/05/03 09:41:14;;;;;;;0.40;0.40;;;;;;;;;;5031721;28;20551;-58
2022/05/03 09:44:07;;;;;;;0.40;0.40;;;;;;;;;;5028033;28;20236;-60
2022/05/03 09:46:55;;;;;;;1.00;0.40;;;;;;;;;;5036102;28;20208;-59
2022/05/03 09:49:43;;;;;;;0.40;0.40;;;;;;;;;;5019458;28;20297;-60
2022/05/03 09:52:31;;;;;;;0.40;0.40;;;;;;;;;;5023434;28;20230;-60
2022/05/03 09:55:28;;;;;;;0.30;0.30;;;;;;;;;;5018919;28;20209;-60
2022/05/03 09:58:17;;;;;;;0.30;0.30;;;;;;;;;;5020411;28;20213;-59
2022/05/03 10:01:06;;;;;;;0.30;0.25;;;;;;;;;;5023167;28;20218;-61
2022/05/03 10:03:54;;;;;;;0.40;0.40;;;;;;;;;;5018262;28;20231;-59
2022/05/03 10:06:41;;;;;;;0.30;0.30;;;;;;;;;;5021150;28;20223;-61
2022/05/03 10:09:28;;;;;;;0.52;0.52;;;;;;;;;;5018649;28;20294;-61
2022/05/03 10:12:15;;;;;;;0.40;0.40;;;;;;;;;;5018600;28;20208;-60
2022/05/03 10:15:03;;;;;;;0.30;0.30;;;;;;;;;;5015294;28;20340;-60
2022/05/03 10:21:02;;;;;;;0.30;0.30;;;;;;;;;;5016868;28;20668;-61
2022/05/03 10:24:02;;;;;;;0.35;0.35;;;;;;;;;;5017259;28;20235;-60
2022/05/03 10:27:01;;;;;;;0.77;0.38;;;;;;;;;;5013922;28;20212;-60
2022/05/03 10:30:14;;;;;;;0.30;0.30;;;;;;;;;;5022651;28;20747;-60
2022/05/03 10:33:40;;;;;;;0.47;0.47;;;;;;;;;;5010798;28;20292;-61
2022/05/03 10:36:44;;;;;;;0.60;0.40;;;;;;;;;;5014841;28;20339;-60
2022/05/03 10:39:31;;;;;;;0.95;0.22;;;;;;;;;;5016781;28;20203;-62
2022/05/03 10:42:23;;;;;;;0.40;0.40;;;;;;;;;;5019019;28;20212;-60
2022/05/03 10:45:11;;;;;;;0.40;0.30;;;;;;;;;;5015310;28;20391;-61
2022/05/03 10:47:59;;;;;;;0.30;0.30;;;;;;;;;;5018548;28;20649;-61
2022/05/03 10:50:50;;;;;;;0.10;0.10;;;;;;;;;;5033467;28;20221;-61
2022/05/03 10:53:40;;;;;;;0.47;0.47;;;;;;;;;;5031149;28;20250;-61
2022/05/03 10:56:27;;;;;;;0.45;0.45;;;;;;;;;;5029958;28;20206;-61
2022/05/03 10:59:15;;;;;;;0.45;0.45;;;;;;;;;;5034913;28;20612;-61
2022/05/03 11:02:10;;;;;;;0.35;0.35;;;;;;;;;;5028860;28;20205;-61
2022/05/03 11:05:15;;;;;;;0.43;0.43;;;;;;;;;;5033349;28;20242;-61
2022/05/03 11:08:17;;;;;;;0.40;0.40;;;;;;;;;;5032302;28;20203;-61
2022/05/03 11:11:04;;;;;;;0.38;0.25;;;;;;;;;;5031827;28;20207;-61
2022/05/03 11:13:51;;;;;;;0.40;0.40;;;;;;;;;;5029299;28;20289;-61
2022/05/03 11:16:37;;;;;;;0.93;0.50;;;;;;;;;;5030902;28;20302;-61
2022/05/03 11:19:25;;;;;;;0.43;0.43;;;;;;;;;;5034692;28;20211;-62
2022/05/03 11:22:14;;;;;;;0.45;0.45;;;;;;;;;;5031784;28;20214;-61
2022/05/03 11:25:07;;;;;;;0.57;0.57;;;;;;;;;;5031471;28;20308;-62
2022/05/03 11:27:54;;;;;;;1.00;0.43;;;;;;;;;;5032278;28;20205;-60
2022/05/03 11:30:41;;;;;;;0.38;0.38;;;;;;;;;;5027975;28;20688;-61
2022/05/03 11:33:28;;;;;;;0.40;0.40;;;;;;;;;;5029676;28;20222;-62
2022/05/03 11:36:15;;;;;;;1.40;0.50;;;;;;;;;;5031300;28;20258;-61
2022/05/03 11:39:03;;;;;;;0.93;0.68;;;;;;;;;;5031090;28;20715;-61
2022/05/03 11:41:51;;;;;;;0.50;0.50;;;;;;;;;;5029955;28;20683;-61
2022/05/03 11:44:44;;;;;;;0.40;0.40;;;;;;;;;;5031262;28;20456;-62
2022/05/03 11:47:33;;;;;;;0.40;0.40;;;;;;;;;;5036691;28;20209;-60
2022/05/03 11:56:31;;;;;;;0.30;0.30;;;;;;;;;;5032178;28;20210;-61
2022/05/03 11:59:19;;;;;;;0.40;0.40;;;;;;;;;;5031750;28;20211;-61
2022/05/03 12:02:14;;;;;;;0.40;0.40;;;;;;;;;;5032717;28;20682;-61
2022/05/03 12:05:15;;;;;;;0.40;0.40;;;;;;;;;;5032555;28;20318;-61
2022/05/03 12:08:02;;;;;;;0.50;0.50;;;;;;;;;;5033891;28;20263;-61
2022/05/03 12:10:51;;;;;;;0.20;0.20;;;;;;;;;;5030866;28;20291;-62
2022/05/03 12:13:38;;;;;;;0.30;0.30;;;;;;;;;;5030542;28;20218;-61
2022/05/03 12:16:27;;;;;;;0.47;0.43;;;;;;;;;;5032566;28;20208;-61
2022/05/03 12:19:20;;;;;;;0.70;0.70;;;;;;;;;;5040551;28;20226;-62
2022/05/03 12:22:10;;;;;;;0.70;0.70;;;;;;;;;;5031420;28;20290;-61
2022/05/03 12:24:58;;;;;;;1.08;0.73;;;;;;;;;;5030994;28;20332;-61
2022/05/03 12:27:48;;;;;;;0.80;0.80;;;;;;;;;;5029282;28;20699;-61
2022/05/03 12:30:37;;;;;;;1.90;0.80;;;;;;;;;;5030092;28;20337;-61
2022/05/03 12:33:27;;;;;;;0.80;0.80;;;;;;;;;;5029993;28;20206;-62
2022/05/03 12:36:28;;;;;;;0.60;0.60;;;;;;;;;;5030380;28;20212;-62
2022/05/03 12:39:17;;;;;;;0.77;0.77;;;;;;;;;;5029467;28;20296;-60
2022/05/03 12:42:10;;;;;;;1.17;0.57;;;;;;;;;;5030357;28;20210;-61
2022/05/03 12:44:59;;;;;;;0.80;0.80;;;;;;;;;;5028372;28;20380;-61
2022/05/03 12:47:46;;;;;;;1.20;0.60;;;;;;;;;;5032416;28;20720;-61
2022/05/03 12:50:34;;;;;;;0.70;0.70;;;;;;;;;;5033219;28;20358;-61
2022/05/03 12:53:24;;;;;;;0.60;0.60;;;;;;;;;;5032054;28;20308;-62
2022/05/03 12:59:16;;;;;;;0.50;0.50;;;;;;;;;;5038148;28;20212;-60
2022/05/03 13:02:03;;;;;;;0.50;0.50;;;;;;;;;;5028869;28;20316;-63
2022/05/03 13:04:50;;;;;;;0.40;0.40;;;;;;;;;;5035169;28;20239;-60
2022/05/03 13:07:38;;;;;;;0.70;0.67;;;;;;;;;;5030078;28;20294;-61
2022/05/03 13:10:25;;;;;;;0.60;0.60;;;;;;;;;;5029962;28;20267;-63
2022/05/03 13:13:13;;;;;;;0.70;0.70;;;;;;;;;;5035779;28;20213;-60
2022/05/03 13:16:00;;;;;;;0.63;0.63;;;;;;;;;;5028689;28;20242;-62
2022/05/03 13:18:46;;;;;;;0.70;0.50;;;;;;;;;;5033782;28;20284;-61
2022/05/03 13:21:35;;;;;;;0.73;0.73;;;;;;;;;;5036213;28;20263;-61
2022/05/03 13:24:24;;;;;;;1.00;0.60;;;;;;;;;;5028191;28;20266;-61
2022/05/03 13:27:11;;;;;;;0.57;0.57;;;;;;;;;;5031944;28;20247;-61
2022/05/03 13:29:58;;;;;;;0.50;0.50;;;;;;;;;;5032189;28;20234;-61
2022/05/03 13:32:45;;;;;;;0.40;0.40;;;;;;;;;;5028094;28;20463;-61
2022/05/03 13:41:42;;;;;;;0.63;0.63;;;;;;;;;;5029952;28;20211;-63
2022/05/03 13:44:29;;;;;;;0.60;0.60;;;;;;;;;;5033528;28;20377;-61
2022/05/03 13:47:16;;;;;;;0.50;0.50;;;;;;;;;;5029807;28;20258;-60
2022/05/03 13:50:03;;;;;;;0.30;0.30;;;;;;;;;;5033693;28;20236;-61
2022/05/03 13:52:50;;;;;;;0.80;0.40;;;;;;;;;;5030114;28;20307;-60
2022/05/03 13:55:39;;;;;;;0.30;0.30;;;;;;;;;;5030648;28;20233;-61
2022/05/03 13:58:27;;;;;;;1.23;0.30;;;;;;;;;;5031349;28;20210;-61
2022/05/03 14:01:14;;;;;;;0.43;0.43;;;;;;;;;;5029121;28;20684;-61
2022/05/03 14:04:02;;;;;;;1.20;0.40;;;;;;;;;;5028290;28;20263;-60
2022/05/03 14:06:49;;;;;;;0.40;0.30;;;;;;;;;;5028655;28;20223;-61
2022/05/03 14:09:36;;;;;;;0.40;0.40;;;;;;;;;;5033701;28;20563;-60
2022/05/03 14:12:23;;;;;;;0.40;0.40;;;;;;;;;;5031413;28;20217;-61
2022/05/03 14:15:12;;;;;;;0.30;0.30;;;;;;;;;;5032014;28;20692;-61
2022/05/03 14:17:59;;;;;;;0.40;0.40;;;;;;;;;;5028415;28;20277;-61
2022/05/03 14:20:46;;;;;;;0.40;0.40;;;;;;;;;;5028350;28;20298;-61
2022/05/03 14:23:34;;;;;;;0.40;0.40;;;;;;;;;;5031922;28;20364;-61
2022/05/03 14:26:21;;;;;;;0.30;0.30;;;;;;;;;;5027666;28;20235;-61
2022/05/03 14:29:08;;;;;;;0.53;0.33;;;;;;;;;;5030997;28;20684;-61
2022/05/03 14:31:57;;;;;;;0.30;0.30;;;;;;;;;;5033589;28;20294;-61
2022/05/03 14:34:44;;;;;;;0.73;0.40;;;;;;;;;;5029747;28;20771;-61
2022/05/03 14:37:31;;;;;;;0.30;0.30;;;;;;;;;;5032635;28;20216;-61
2022/05/03 14:40:18;;;;;;;0.20;0.20;;;;;;;;;;5029925;28;20685;-61
2022/05/03 14:43:06;;;;;;;0.40;0.40;;;;;;;;;;5038629;28;20761;-61
2022/05/03 14:45:53;;;;;;;0.27;0.27;;;;;;;;;;5029982;28;20226;-61
2022/05/03 14:48:41;;;;;;;0.23;0.23;;;;;;;;;;5032823;28;20319;-61
2022/05/03 14:51:28;;;;;;;0.30;0.30;;;;;;;;;;5031687;28;20212;-61
2022/05/03 14:54:15;;;;;;;0.30;0.30;;;;;;;;;;5034352;28;20694;-60
2022/05/03 15:03:12;;;;;;;0.73;0.20;;;;;;;;;;5030582;28;20332;-61
2022/05/03 15:06:00;;;;;;;0.20;0.20;;;;;;;;;;5036637;28;20314;-60
2022/05/03 15:08:47;;;;;;;0.27;0.27;;;;;;;;;;5033060;28;20214;-60
2022/05/03 15:11:34;;;;;;;0.93;0.30;;;;;;;;;;5033533;28;20353;-61
2022/05/03 15:14:21;;;;;;;1.03;0.37;;;;;;;;;;5031694;28;20287;-61
2022/05/03 15:17:08;;;;;;;0.70;0.47;;;;;;;;;;5033830;28;20213;-61
2022/05/03 15:19:55;;;;;;;0.40;0.33;;;;;;;;;;5033471;28;20297;-61
2022/05/03 15:25:48;;;;;;;0.20;0.20;;;;;;;;;;5030263;28;20290;-62
2022/05/03 15:28:35;;;;;;;0.30;0.30;;;;;;;;;;5030675;28;20294;-61
2022/05/03 15:31:22;;;;;;;0.50;0.30;;;;;;;;;;5030315;28;20677;-61
2022/05/03 15:34:09;;;;;;;0.17;0.17;;;;;;;;;;5033247;28;20700;-60
2022/05/03 15:36:56;;;;;;;0.40;0.33;;;;;;;;;;5036701;28;20604;-60
2022/05/03 15:39:45;;;;;;;0.30;0.30;;;;;;;;;;5031583;28;20277;-61
2022/05/03 15:42:33;;;;;;;0.40;0.20;;;;;;;;;;5030963;28;20666;-61
2022/05/03 15:45:21;;;;;;;0.20;0.20;;;;;;;;;;5025981;28;20260;-61
2022/05/03 15:48:09;;;;;;;0.53;0.30;;;;;;;;;;5025643;28;20325;-61
2022/05/03 15:50:57;;;;;;;0.20;0.20;;;;;;;;;;5004656;28;20264;-60
2022/05/03 15:53:45;;;;;;;0.23;0.23;;;;;;;;;;5017139;28;20280;-61
2022/05/03 15:56:33;;;;;;;0.13;0.13;;;;;;;;;;5016401;28;20241;-61
2022/05/03 15:59:20;;;;;;;0.30;0.30;;;;;;;;;;5018616;28;20209;-61
2022/05/03 16:02:08;;;;;;;0.33;0.33;;;;;;;;;;5006545;28;20235;-61
2022/05/03 16:04:55;;;;;;;0.20;0.20;;;;;;;;;;5008302;28;20729;-61
2022/05/03 16:07:42;;;;;;;0.20;0.20;;;;;;;;;;5008727;28;20286;-61
2022/05/03 16:10:30;;;;;;;0.60;0.40;;;;;;;;;;5015838;28;20752;-61
2022/05/03 16:13:19;;;;;;;0.20;0.20;;;;;;;;;;5011534;28;20296;-61
2022/05/03 16:16:06;;;;;;;0.60;0.30;;;;;;;;;;5016804;28;20209;-61
2022/05/03 16:18:53;;;;;;;0.10;0.10;;;;;;;;;;5016057;28;20318;-61
2022/05/03 16:21:40;;;;;;;0.30;0.30;;;;;;;;;;5019011;28;20336;-61
2022/05/03 16:24:27;;;;;;;0.20;0.20;;;;;;;;;;5016425;28;20212;-61
2022/05/03 16:27:15;;;;;;;0.33;0.33;;;;;;;;;;5018919;28;20784;-61
2022/05/03 16:30:04;;;;;;;0.20;0.20;;;;;;;;;;5016535;28;20298;-61
2022/05/03 16:32:52;;;;;;;0.30;0.30;;;;;;;;;;5021554;28;20234;-60
2022/05/03 16:35:39;;;;;;;0.67;0.23;;;;;;;;;;5014038;28;20205;-62
2022/05/03 16:44:35;;;;;;;0.30;0.30;;;;;;;;;;5017614;28;20239;-61
2022/05/03 16:47:25;;;;;;;0.30;0.30;;;;;;;;;;5019388;28;20204;-61
2022/05/03 16:50:13;;;;;;;0.20;0.20;;;;;;;;;;5031153;28;20386;-61
2022/05/03 16:53:01;;;;;;;0.30;0.30;;;;;;;;;;5028432;28;20235;-62
2022/05/03 16:55:48;;;;;;;0.30;0.30;;;;;;;;;;5029377;28;20208;-60
2022/05/03 16:58:35;;;;;;;0.33;0.33;;;;;;;;;;5027721;28;20665;-61
2022/05/03 17:01:21;;;;;;;0.23;0.23;;;;;;;;;;5028156;28;20223;-61
2022/05/03 17:04:10;;;;;;;0.30;0.30;;;;;;;;;;5034267;28;20205;-61
2022/05/03 17:06:57;;;;;;;0.43;0.40;;;;;;;;;;5029031;28;20232;-61
2022/05/03 17:09:45;;;;;;;0.30;0.30;;;;;;;;;;5031405;28;20240;-61
2022/05/03 17:12:32;;;;;;;0.20;0.20;;;;;;;;;;5028189;28;20251;-61
2022/05/03 17:15:19;;;;;;;0.27;0.27;;;;;;;;;;5031522;28;20214;-61
2022/05/03 17:18:06;;;;;;;0.30;0.30;;;;;;;;;;5033623;28;20212;-61
2022/05/03 17:20:55;;;;;;;0.43;0.40;;;;;;;;;;5025927;28;20325;-61
2022/05/03 17:23:42;;;;;;;0.70;0.40;;;;;;;;;;5029780;28;20271;-61
2022/05/03 17:26:29;;;;;;;0.30;0.30;;;;;;;;;;5028608;28;20320;-60
2022/05/03 17:29:16;;;;;;;0.37;0.37;;;;;;;;;;5029581;28;20290;-61
2022/05/03 17:32:03;;;;;;;1.70;0.30;;;;;;;;;;5030883;28;20289;-61
2022/05/03 17:34:50;;;;;;;0.30;0.30;;;;;;;;;;5032900;28;20358;-60
2022/05/03 17:37:38;;;;;;;0.87;0.60;;;;;;;;;;5027317;28;20278;-61
2022/05/03 17:40:25;;;;;;;0.30;0.30;;;;;;;;;;5026876;28;20238;-61
2022/05/03 17:43:12;;;;;;;0.30;0.30;;;;;;;;;;5029446;28;20221;-60
2022/05/03 17:45:59;;;;;;;0.40;0.33;;;;;;;;;;5029290;28;20365;-62
2022/05/03 17:48:46;;;;;;;0.43;0.43;;;;;;;;;;5029628;28;20239;-61